Terminal Aerodrome Forecast
Issued by NWS

Home | Current Version | Previous Version | Text Only | Print | Product List | Glossary On
Versions: 1 2 3 4 5 6 7 8 9 10 11 12 13 14 15 16
000
FTUS44 KOUN 231721
TAFHBR
TAF
KHBR 231721Z 2318/2418 21021G30KT P6SM SKC
     FM232300 16026G33KT P6SM BKN100
      TEMPO 2400/2402 VRB25G45KT 5SM TSRA BKN050CB
     FM240900 34020G30KT P6SM BKN030=

USA.gov is the U.S. government's official web portal to all federal, state and local government web resources and services.